Date,TemperatureHighF,TemperatureAvgF,TemperatureLowF,DewpointHighF,DewpointAvgF,DewpointLowF,HumidityHigh,HumidityAvg,HumidityLow,PressureMaxIn,PressureMinIn,WindSpeedMaxMPH,WindSpeedAvgMPH,GustSpeedMaxMPH,PrecipitationSumIn
2013-3-1,43.5,37.8,31.3,31.6,27.2,23.6,77,66,56,0.00,0.00,0,0,0,0.00
2013-3-2,39.7,36.1,33.6,26.6,24.0,21.1,68,61,55,0.00,0.00,0,0,0,0.00
2013-3-3,50.7,36.6,26.2,27.1,20.9,14.4,72,54,38,0.00,0.00,0,0,0,0.00
2013-3-4,56.5,37.3,25.2,24.1,17.4,12.0,58,46,27,0.00,0.00,0,0,0,0.00
2013-3-5,48.9,38.6,29.5,32.6,25.2,15.8,80,59,48,0.00,0.00,0,0,0,0.00
2013-3-6,33.6,33.1,32.7,28.7,28.4,28.0,84,83,80,0.00,0.00,0,0,0,0.00
2013-3-7,45.9,39.7,32.7,33.8,28.3,24.8,73,64,57,0.00,0.00,0,0,0,0.00
2013-3-8,47.1,38.1,31.6,31.7,27.3,24.6,76,66,53,0.00,0.00,114,0,114,0.00
2013-3-9,61.2,40.7,30.0,35.1,27.7,23.0,76,62,31,0.00,0.00,0,0,0,0.00
2013-3-10,68.2,46.7,28.9,39.6,29.4,20.9,75,54,30,0.00,0.00,0,0,0,0.00
2013-3-11,61.0,50.3,34.9,48.8,41.0,25.3,77,71,64,0.00,0.00,0,0,0,0.00
2013-3-12,68.5,57.4,44.2,58.9,48.4,31.7,88,73,49,0.00,0.00,0,0,0,0.00
2013-3-13,44.2,38.0,33.4,31.7,26.7,18.0,74,64,47,0.00,0.00,0,0,0,0.00
2013-3-14,53.4,38.2,30.9,24.9,19.1,16.9,57,47,33,0.00,0.00,0,0,0,0.00
2013-3-15,88.0,49.1,28.6,70.9,30.0,17.9,69,49,37,0.00,0.00,0,0,0,0.00
2013-3-16,67.6,53.9,41.4,52.8,44.9,29.7,83,72,57,0.00,0.00,0,0,0,0.44
2013-3-17,45.5,38.7,34.0,39.1,33.8,29.6,85,83,78,0.00,0.00,0,0,0,0.02
2013-3-18,34.3,33.8,33.1,30.8,30.1,29.3,87,86,84,0.00,0.00,0,0,0,0.00
2013-3-19,62.8,45.0,33.1,46.9,33.4,18.7,89,69,28,0.00,0.00,0,0,0,0.00
2013-3-20,59.2,50.7,35.4,27.4,22.3,15.0,45,34,26,0.00,0.00,0,0,0,0.00
2013-3-21,43.3,35.1,29.3,25.5,19.0,9.9,70,53,37,0.00,0.00,0,0,0,0.00
2013-3-22,56.5,38.7,26.1,25.8,17.6,10.0,56,43,29,0.00,0.00,0,0,0,0.00
2013-3-23,59.9,41.5,26.4,29.6,23.2,16.5,68,50,30,0.00,0.00,0,0,0,0.00
2013-3-24,41.7,36.4,33.8,27.6,24.6,21.6,77,63,51,0.00,0.00,0,0,0,0.00
2013-3-25,39.0,35.3,32.4,33.5,29.9,27.4,82,80,77,0.00,0.00,0,0,0,0.00
2013-3-26,48.0,38.3,30.0,36.1,29.9,25.5,84,72,56,0.00,0.00,0,0,0,0.00
2013-3-27,52.9,42.3,32.7,33.8,27.9,23.3,73,58,42,0.00,0.00,0,0,0,0.00
2013-3-28,55.2,41.6,29.1,32.5,26.3,21.2,75,56,41,0.00,0.00,0,0,0,0.00
2013-3-29,59.4,45.3,32.7,36.6,29.3,23.0,72,55,37,0.00,0.00,0,0,0,0.00
2013-3-30,65.8,48.7,33.1,36.5,29.9,23.7,69,50,32,0.00,0.00,0,0,0,0.00
2013-3-31,54.0,46.2,41.7,48.3,37.5,29.9,83,72,57,0.00,0.00,0,0,0,0.00